Kang Hong — VRBA8 — position and weather

sailwx.info

Track history (hours):
 
Tides and Currents Weather Stations Pressure Air Temp Water Temp Dewpoint Dewpoint Depression Visibility Wind Speed Wind Dir Waves Ship Positions

Kang Hong

Last reported at 2017-Sep-19 06:07 UTC. Time now 2017-Sep-20 23:51 UTC.
Position N 23°06' E 113°26'.

Length 190 m; draft 5.5 m.

Type: Cargo ship. MMSI: 477995400.

Date/timePositionNaut miles runAvg speedWind from/ knotsBaromVisibWave heightAir tempDewpointWater temp
2017-Sep-19 06:07N 23°06' E 113°26'0 0.0
2017-Sep-19 05:55N 23°06' E 113°26'0 0.0
2017-Sep-19 05:25N 23°06' E 113°26'0 0.0
2017-Sep-19 04:55N 23°06' E 113°26'0 0.0
2017-Sep-19 04:25N 23°06' E 113°26'0 0.0
2017-Sep-19 02:18N 23°06' E 113°26'0 0.0
2017-Sep-18 07:02N 23°06' E 113°26'0 0.0
2017-Sep-18 06:56N 23°06' E 113°26'7063149.4
2017-Sep-16 07:39N 26°13' W 016°03'213.1
2017-Sep-16 07:30N 26°15' W 016°02'2112.8
2017-Sep-16 05:49N 26°34' W 015°51'712.6
2017-Sep-16 05:15N 26°40' W 015°47'712.7
2017-Sep-16 04:44N 26°46' W 015°44'612.5
2017-Sep-16 04:15N 26°51' W 015°41'1112.8
2017-Sep-16 03:22N 27°01' W 015°35'613.0
2017-Sep-16 02:54N 27°07' W 015°32'1913.3
2017-Sep-16 01:29N 27°24' W 015°22'913.8
2017-Sep-16 00:49N 27°32' W 015°18'413.9
2017-Sep-16 00:30N 27°36' W 015°15'713.8
2017-Sep-16 00:00N 27°42' W 015°12'714.0
2017-Sep-15 23:30N 27°48' W 015°09'713.8
2017-Sep-15 23:00N 27°55' W 015°06'613.1
2017-Sep-15 22:31N 28°01' W 015°03'712.8
2017-Sep-15 22:00N 28°07' W 015°01'612.9
2017-Sep-15 21:30N 28°13' W 014°58'713.3
2017-Sep-15 21:00N 28°19' W 014°55'713.6
2017-Sep-15 20:30N 28°26' W 014°53'713.7
2017-Sep-15 20:00N 28°32' W 014°50'713.7
2017-Sep-15 19:29N 28°38' W 014°46'713.8
2017-Sep-15 18:58N 28°44' W 014°42'713.8
2017-Sep-15 18:26N 28°51' W 014°38'613.5
2017-Sep-15 17:57N 28°57' W 014°35'613.6
2017-Sep-15 17:30N 29°02' W 014°32'713.6
2017-Sep-15 17:00N 29°08' W 014°28'713.3
2017-Sep-15 16:30N 29°14' W 014°25'1113.5
2017-Sep-15 15:41N 29°24' W 014°19'213.3
2017-Sep-15 15:30N 29°26' W 014°18'713.3
2017-Sep-15 15:00N 29°32' W 014°14'713.3
2017-Sep-15 14:30N 29°38' W 014°11'713.4
2017-Sep-15 14:00N 29°44' W 014°08'713.5
2017-Sep-15 13:30N 29°50' W 014°04'713.5
2017-Sep-15 13:00N 29°56' W 014°01'813.5
2017-Sep-15 12:26N 30°03' W 013°57'613.4
2017-Sep-15 12:00N 30°08' W 013°54'713.2
2017-Sep-15 11:30N 30°14' W 013°51'713.3
2017-Sep-15 10:59N 30°20' W 013°47'613.3
2017-Sep-15 10:30N 30°26' W 013°43'713.4
2017-Sep-15 10:00N 30°32' W 013°40'813.5
2017-Sep-15 09:25N 30°39' W 013°36'513.3
2017-Sep-15 09:00N 30°44' W 013°33'713.3
2017-Sep-15 08:30N 30°50' W 013°30'713.3
2017-Sep-15 07:58N 30°56' W 013°26'713.2
2017-Sep-15 07:27N 31°02' W 013°22'613.2
2017-Sep-15 07:00N 31°08' W 013°19'813.2
2017-Sep-15 06:23N 31°15' W 013°15'513.2
2017-Sep-15 06:00N 31°20' W 013°13'613.2
2017-Sep-15 05:30N 31°26' W 013°10'713.2
2017-Sep-15 04:59N 31°32' W 013°06'713.2
2017-Sep-15 04:30N 31°38' W 013°03'1013.5
2017-Sep-15 03:44N 31°47' W 012°58'313.5
2017-Sep-15 03:30N 31°50' W 012°57'713.2
2017-Sep-15 03:00N 31°56' W 012°54'813.3
2017-Sep-15 02:24N 32°04' W 012°50'613.5
2017-Sep-15 01:59N 32°09' W 012°48'1013.8
2017-Sep-15 01:18N 32°18' W 012°43'413.7
2017-Sep-15 01:00N 32°21' W 012°41'713.8
2017-Sep-15 00:30N 32°28' W 012°38'1013.7
2017-Sep-14 23:46N 32°37' W 012°33'313.7
2017-Sep-14 23:30N 32°40' W 012°32'713.5
2017-Sep-14 22:58N 32°47' W 012°28'713.7
2017-Sep-14 22:28N 32°53' W 012°25'613.8
2017-Sep-14 22:00N 32°59' W 012°22'714.0
2017-Sep-14 21:30N 33°05' W 012°18'713.8
2017-Sep-14 21:00N 33°12' W 012°15'1913.7
2017-Sep-14 19:36N 33°29' W 012°06'113.6
2017-Sep-14 19:29N 33°31' W 012°05'713.7
2017-Sep-14 18:59N 33°37' W 012°02'713.8
2017-Sep-14 18:26N 33°44' W 011°59'613.9
2017-Sep-14 18:01N 33°49' W 011°56'3513.8
2017-Sep-14 15:29N 34°21' W 011°39'913.9
2017-Sep-14 14:51N 34°29' W 011°35'1814.0
2017-Sep-14 13:34N 34°46' W 011°26'414.0
2017-Sep-14 13:17N 34°50' W 011°24'714.1
2017-Sep-14 12:47N 34°56' W 011°21'18913.6
2017-Sep-13 22:53N 37°50' W 009°47'513.6
2017-Sep-13 22:29N 37°55' W 009°45'713.9
2017-Sep-13 22:01N 38°01' W 009°41'714.3
2017-Sep-13 21:30N 38°07' W 009°37'713.9
2017-Sep-13 21:00N 38°14' W 009°34'714.2
2017-Sep-13 20:30N 38°20' W 009°31'714.1
2017-Sep-13 20:00N 38°27' W 009°27'713.8
2017-Sep-13 19:31N 38°33' W 009°25'510.4
2017-Sep-13 19:00N 38°39' W 009°24'3 6.6
2017-Sep-13 18:30N 38°39' W 009°20'5 9.0
2017-Sep-13 18:00N 38°41' W 009°14'5 9.5
2017-Sep-13 17:30N 38°42' W 009°08'2 3.1
2017-Sep-13 16:58N 38°42' W 009°06'0 0.3
2017-Sep-13 16:28N 38°42' W 009°06'0 0.1
2017-Sep-13 15:58N 38°42' W 009°07'0 0.1
2017-Sep-13 15:25N 38°42' W 009°07'0 0.1
2017-Sep-13 14:55N 38°42' W 009°07'0 0.0
2017-Sep-13 14:28N 38°42' W 009°07'0 0.0
2017-Sep-13 13:58N 38°42' W 009°07'0 0.0
2017-Sep-13 13:25N 38°42' W 009°07'0 0.0
2017-Sep-13 12:58N 38°42' W 009°07'0 0.0
2017-Sep-13 12:28N 38°42' W 009°07'0 0.0
2017-Sep-13 11:58N 38°42' W 009°07'0 0.0
2017-Sep-13 11:28N 38°42' W 009°07'0 0.0
2017-Sep-13 10:58N 38°42' W 009°07'0 0.0
2017-Sep-13 10:28N 38°42' W 009°07'0 0.0
2017-Sep-13 09:58N 38°42' W 009°07'0 0.1
2017-Sep-13 09:28N 38°42' W 009°07'0 0.2
2017-Sep-13 08:58N 38°42' W 009°06'0 0.2
2017-Sep-13 08:28N 38°42' W 009°06'0 0.1
2017-Sep-13 07:58N 38°42' W 009°06'0 0.1
2017-Sep-13 07:28N 38°42' W 009°06'0 0.0
2017-Sep-13 06:58N 38°42' W 009°06'0 0.0
2017-Sep-13 06:28N 38°42' W 009°06'0 0.0
2017-Sep-13 05:58N 38°42' W 009°06'0 0.0
2017-Sep-13 05:28N 38°42' W 009°06'0 0.0
2017-Sep-13 04:58N 38°42' W 009°06'0 0.0
2017-Sep-13 04:28N 38°42' W 009°06'0 0.0
2017-Sep-13 03:58N 38°42' W 009°06'0 0.0
2017-Sep-13 03:28N 38°42' W 009°06'0 0.3
2017-Sep-13 02:58N 38°42' W 009°06'0 0.1
2017-Sep-13 02:25N 38°42' W 009°07'0 0.0
2017-Sep-13 01:58N 38°42' W 009°07'0 0.0
2017-Sep-13 01:28N 38°42' W 009°07'0 0.1
2017-Sep-13 00:58N 38°42' W 009°07'0 0.0
2017-Sep-13 00:28N 38°42' W 009°07'0 0.0
2017-Sep-12 23:58N 38°42' W 009°07'0 0.0
2017-Sep-12 23:28N 38°42' W 009°07'0 0.0
2017-Sep-12 22:58N 38°42' W 009°07'0 0.0
2017-Sep-12 22:25N 38°42' W 009°07'0 0.0
2017-Sep-12 21:58N 38°42' W 009°07'0 0.0
2017-Sep-12 21:28N 38°42' W 009°07'0 0.1
2017-Sep-12 20:58N 38°42' W 009°07'0 0.1
2017-Sep-12 20:28N 38°42' W 009°06'0 0.3
2017-Sep-12 19:58N 38°42' W 009°06'0 0.2
2017-Sep-12 19:28N 38°42' W 009°06'0 0.0
2017-Sep-12 18:58N 38°42' W 009°06'0 0.1
2017-Sep-12 18:28N 38°42' W 009°06'0 0.0
2017-Sep-12 17:58N 38°42' W 009°06'0 0.0
2017-Sep-12 17:28N 38°42' W 009°06'0 0.0
2017-Sep-12 16:58N 38°42' W 009°06'0 0.0
2017-Sep-12 16:28N 38°42' W 009°06'0 0.0
2017-Sep-12 15:58N 38°42' W 009°06'0 0.0
2017-Sep-12 15:28N 38°42' W 009°06'0 0.1
2017-Sep-12 14:58N 38°42' W 009°06'0 0.2
2017-Sep-12 14:28N 38°42' W 009°06'0 0.2
2017-Sep-12 13:58N 38°42' W 009°07'0 0.0
2017-Sep-12 13:28N 38°42' W 009°07'0 0.0
2017-Sep-12 12:58N 38°42' W 009°07'0 0.0
2017-Sep-12 12:28N 38°42' W 009°07'0 0.0
2017-Sep-12 11:58N 38°42' W 009°07'0 0.0
2017-Sep-12 11:28N 38°42' W 009°07'0 0.0
2017-Sep-12 10:58N 38°42' W 009°07'0 0.0
2017-Sep-12 10:28N 38°42' W 009°07'0 0.0
2017-Sep-12 09:58N 38°42' W 009°07'0 0.0
2017-Sep-12 09:25N 38°42' W 009°07'0 0.0
2017-Sep-12 08:58N 38°42' W 009°07'0 0.1
2017-Sep-12 08:28N 38°42' W 009°07'0 0.1
2017-Sep-12 07:58N 38°42' W 009°06'0 0.1
2017-Sep-12 07:28N 38°42' W 009°06'0 0.2
2017-Sep-12 06:58N 38°42' W 009°06'0 0.1
2017-Sep-12 06:28N 38°42' W 009°06'0 0.1
2017-Sep-12 05:58N 38°42' W 009°06'0 0.0
2017-Sep-12 05:28N 38°42' W 009°06'0 0.1
2017-Sep-12 04:55N 38°42' W 009°06'0 0.0
2017-Sep-12 04:28N 38°42' W 009°06'0 0.0
2017-Sep-12 03:55N 38°42' W 009°06'0 0.0
2017-Sep-12 03:28N 38°42' W 009°06'0 0.1
2017-Sep-12 02:58N 38°42' W 009°06'0 0.1
2017-Sep-12 02:28N 38°42' W 009°06'0 0.2
2017-Sep-12 01:58N 38°42' W 009°06'0 0.2
2017-Sep-12 01:28N 38°42' W 009°06'0 0.1
2017-Sep-12 00:58N 38°42' W 009°07'0 0.1
2017-Sep-12 00:28N 38°42' W 009°07'0 0.0
2017-Sep-11 23:58N 38°42' W 009°07'0 0.0
2017-Sep-11 23:28N 38°42' W 009°07'0 0.0
2017-Sep-11 22:58N 38°42' W 009°07'0 0.0
2017-Sep-11 22:25N 38°42' W 009°07'0 0.0
2017-Sep-11 21:58N 38°42' W 009°07'0 0.0
2017-Sep-11 21:25N 38°42' W 009°07'0 0.0
2017-Sep-11 20:58N 38°42' W 009°07'0 0.0
2017-Sep-11 20:28N 38°42' W 009°07'0 0.1
2017-Sep-11 19:58N 38°42' W 009°07'0 0.1
2017-Sep-11 19:28N 38°42' W 009°06'0 0.2
2017-Sep-11 18:58N 38°42' W 009°06'0 0.1
2017-Sep-11 18:28N 38°42' W 009°06'0 0.1
2017-Sep-11 17:58N 38°42' W 009°06'0 0.0
2017-Sep-11 17:25N 38°42' W 009°06'0 0.0
2017-Sep-11 16:58N 38°42' W 009°06'0 0.0
2017-Sep-11 16:25N 38°42' W 009°06'0 0.0
2017-Sep-11 15:58N 38°42' W 009°06'0 0.0
2017-Sep-11 15:28N 38°42' W 009°06'0 0.0
2017-Sep-11 14:58N 38°42' W 009°06'0 0.1
2017-Sep-11 14:22N 38°42' W 009°06'0 0.0
2017-Sep-11 13:58N 38°42' W 009°06'0 0.3
2017-Sep-11 13:25N 38°42' W 009°06'0 0.1
2017-Sep-11 12:58N 38°42' W 009°07'0 0.0
2017-Sep-11 12:28N 38°42' W 009°07'0 0.0
2017-Sep-11 11:58N 38°42' W 009°07'0 0.0
2017-Sep-11 11:28N 38°42' W 009°07'0 0.0
2017-Sep-11 10:58N 38°42' W 009°07'0 0.0
2017-Sep-11 10:28N 38°42' W 009°07'0 0.0
2017-Sep-11 09:58N 38°42' W 009°07'0 0.0
2017-Sep-11 09:28N 38°42' W 009°07'0 0.0
2017-Sep-11 08:58N 38°42' W 009°07'0 0.0
2017-Sep-11 08:28N 38°42' W 009°07'0 0.0
2017-Sep-11 07:58N 38°42' W 009°07'0 0.1
2017-Sep-11 07:22N 38°42' W 009°07'0 0.1
2017-Sep-11 06:58N 38°42' W 009°06'0 0.2
2017-Sep-11 06:28N 38°42' W 009°06'0 0.2
2017-Sep-11 05:58N 38°42' W 009°06'0 0.0
2017-Sep-11 05:28N 38°42' W 009°06'0 0.0
2017-Sep-11 04:52N 38°42' W 009°06'0 0.0
2017-Sep-11 04:28N 38°42' W 009°06'0 0.0
2017-Sep-11 03:58N 38°42' W 009°06'0 0.0
2017-Sep-11 03:28N 38°42' W 009°06'0 0.0
2017-Sep-11 02:58N 38°42' W 009°06'0 0.0
2017-Sep-11 02:28N 38°42' W 009°06'0 0.0
2017-Sep-11 01:58N 38°42' W 009°06'0 0.1
2017-Sep-11 01:28N 38°42' W 009°06'0 0.2
2017-Sep-11 00:58N 38°42' W 009°06'0 0.2
2017-Sep-11 00:28N 38°42' W 009°07'0 0.1
2017-Sep-10 23:58N 38°42' W 009°07'0 0.0
2017-Sep-10 23:28N 38°42' W 009°07'0 0.0
2017-Sep-10 22:58N 38°42' W 009°07'0 0.0
2017-Sep-10 22:28N 38°42' W 009°07'0 0.0
2017-Sep-10 21:58N 38°42' W 009°07'0 0.0
2017-Sep-10 21:28N 38°42' W 009°07'0 0.0
2017-Sep-10 20:58N 38°42' W 009°07'0 0.0
2017-Sep-10 20:28N 38°42' W 009°07'0 0.0
2017-Sep-10 19:58N 38°42' W 009°07'0 0.1
2017-Sep-10 19:28N 38°42' W 009°07'0 0.1
2017-Sep-10 18:55N 38°42' W 009°06'0 0.2
2017-Sep-10 18:25N 38°42' W 009°06'0 0.1
2017-Sep-10 17:55N 38°42' W 009°06'0 0.1
2017-Sep-10 17:28N 38°42' W 009°06'0 0.0
2017-Sep-10 16:58N 38°42' W 009°06'0 0.0
2017-Sep-10 16:28N 38°42' W 009°06'0 0.0
2017-Sep-10 15:58N 38°42' W 009°06'0 0.0
2017-Sep-10 15:28N 38°42' W 009°06'0 0.0
2017-Sep-10 14:58N 38°42' W 009°06'0 0.0
2017-Sep-10 13:58N 38°42' W 009°06'0 0.0
2017-Sep-10 13:28N 38°42' W 009°06'0 0.1
2017-Sep-10 12:58N 38°42' W 009°06'0 0.3
2017-Sep-10 12:25N 38°42' W 009°06'0 0.2
2017-Sep-10 11:58N 38°42' W 009°07'0 0.0
2017-Sep-10 11:28N 38°42' W 009°07'0 0.0
2017-Sep-10 10:58N 38°42' W 009°07'0 0.0
2017-Sep-10 10:28N 38°42' W 009°07'0 0.0
2017-Sep-10 09:55N 38°42' W 009°07'0 0.0
2017-Sep-10 09:22N 38°42' W 009°07'0 0.0
2017-Sep-10 08:58N 38°42' W 009°07'0 0.0
2017-Sep-10 08:28N 38°42' W 009°07'0 0.0
2017-Sep-10 07:58N 38°42' W 009°07'0 0.0
2017-Sep-10 07:28N 38°42' W 009°07'0 0.1
2017-Sep-10 06:58N 38°42' W 009°07'0 0.2
2017-Sep-10 06:25N 38°42' W 009°06'0 0.2
2017-Sep-10 05:58N 38°42' W 009°06'0 0.1
2017-Sep-10 05:22N 38°42' W 009°06'0 0.0
2017-Sep-10 04:52N 38°42' W 009°06'0 0.0
2017-Sep-10 04:25N 38°42' W 009°06'0 0.0
2017-Sep-10 03:58N 38°42' W 009°06'0 0.0
2017-Sep-10 03:22N 38°42' W 009°06'0 0.0
2017-Sep-10 02:58N 38°42' W 009°06'0 0.0
2017-Sep-10 02:28N 38°42' W 009°06'0 0.1
2017-Sep-10 01:58N 38°42' W 009°06'0 0.0
2017-Sep-10 01:22N 38°42' W 009°06'0 0.1
2017-Sep-10 00:55N 38°42' W 009°06'0 0.1
2017-Sep-10 00:28N 38°42' W 009°06'0 0.2
2017-Sep-09 23:58N 38°42' W 009°06'0 0.2
2017-Sep-09 23:28N 38°42' W 009°07'0 0.1
2017-Sep-09 22:58N 38°42' W 009°07'0 0.0
2017-Sep-09 22:28N 38°42' W 009°07'0 0.0
2017-Sep-09 21:58N 38°42' W 009°07'0 0.0
2017-Sep-09 21:28N 38°42' W 009°07'0 0.0
2017-Sep-09 20:58N 38°42' W 009°07'0 0.0
2017-Sep-09 20:28N 38°42' W 009°07'0 0.0
2017-Sep-09 19:58N 38°42' W 009°07'0 0.0
2017-Sep-09 19:28N 38°42' W 009°07'0 0.1
2017-Sep-09 18:58N 38°42' W 009°07'0 0.1
2017-Sep-09 18:28N 38°42' W 009°06'0 0.1
2017-Sep-09 17:58N 38°42' W 009°06'0 0.2
2017-Sep-09 17:22N 38°42' W 009°06'0 0.1
2017-Sep-09 16:55N 38°42' W 009°06'0 0.1
2017-Sep-09 16:28N 38°42' W 009°06'0 0.0
2017-Sep-09 15:55N 38°42' W 009°06'0 0.0
2017-Sep-09 15:25N 38°42' W 009°06'0 0.0
2017-Sep-09 14:58N 38°42' W 009°06'0 0.0
2017-Sep-09 14:28N 38°42' W 009°06'0 0.0
2017-Sep-09 13:58N 38°42' W 009°06'0 0.0
2017-Sep-09 13:28N 38°42' W 009°06'0 0.1
2017-Sep-09 12:58N 38°42' W 009°06'0 0.0
2017-Sep-09 12:28N 38°42' W 009°06'0 0.1
2017-Sep-09 11:55N 38°42' W 009°06'0 0.1
2017-Sep-09 11:28N 38°42' W 009°06'0 0.3
2017-Sep-09 10:58N 38°42' W 009°07'0 0.1
2017-Sep-09 10:28N 38°42' W 009°07'0 0.0
2017-Sep-09 09:58N 38°42' W 009°07'0 0.0
2017-Sep-09 09:28N 38°42' W 009°07'0 0.0
2017-Sep-09 08:58N 38°42' W 009°07'0 0.0
2017-Sep-09 08:28N 38°42' W 009°07'0 0.0
2017-Sep-09 07:58N 38°42' W 009°07'0 0.0
2017-Sep-09 07:28N 38°42' W 009°07'0 0.0
2017-Sep-09 06:58N 38°42' W 009°07'0 0.1
2017-Sep-09 06:28N 38°42' W 009°07'  
Track history (hours):
 
Tides and Currents Weather Stations Pressure Air Temp Water Temp Dewpoint Dewpoint Depression Visibility Wind Speed Wind Dir Waves Ship Positions

Kang Hong

Last reported at 2017-Sep-19 06:07 UTC. Time now 2017-Sep-20 23:51 UTC.
Position N 23°06' E 113°26'.

Length 190 m; draft 5.5 m.

Type: Cargo ship. MMSI: 477995400.

Date/timePositionNaut miles runAvg speedWind from/ knotsBaromVisibWave heightAir tempDewpointWater temp
2017-Sep-19 06:07N 23°06' E 113°26'0 0.0
2017-Sep-19 05:55N 23°06' E 113°26'0 0.0
2017-Sep-19 05:25N 23°06' E 113°26'0 0.0
2017-Sep-19 04:55N 23°06' E 113°26'0 0.0
2017-Sep-19 04:25N 23°06' E 113°26'0 0.0
2017-Sep-19 02:18N 23°06' E 113°26'0 0.0
2017-Sep-18 07:02N 23°06' E 113°26'0 0.0
2017-Sep-18 06:56N 23°06' E 113°26'7063149.4
2017-Sep-16 07:39N 26°13' W 016°03'213.1
2017-Sep-16 07:30N 26°15' W 016°02'2112.8
2017-Sep-16 05:49N 26°34' W 015°51'712.6
2017-Sep-16 05:15N 26°40' W 015°47'712.7
2017-Sep-16 04:44N 26°46' W 015°44'612.5
2017-Sep-16 04:15N 26°51' W 015°41'1112.8
2017-Sep-16 03:22N 27°01' W 015°35'613.0
2017-Sep-16 02:54N 27°07' W 015°32'1913.3
2017-Sep-16 01:29N 27°24' W 015°22'913.8
2017-Sep-16 00:49N 27°32' W 015°18'413.9
2017-Sep-16 00:30N 27°36' W 015°15'713.8
2017-Sep-16 00:00N 27°42' W 015°12'714.0
2017-Sep-15 23:30N 27°48' W 015°09'713.8
2017-Sep-15 23:00N 27°55' W 015°06'613.1
2017-Sep-15 22:31N 28°01' W 015°03'712.8
2017-Sep-15 22:00N 28°07' W 015°01'612.9
2017-Sep-15 21:30N 28°13' W 014°58'713.3
2017-Sep-15 21:00N 28°19' W 014°55'713.6
2017-Sep-15 20:30N 28°26' W 014°53'713.7
2017-Sep-15 20:00N 28°32' W 014°50'713.7
2017-Sep-15 19:29N 28°38' W 014°46'713.8
2017-Sep-15 18:58N 28°44' W 014°42'713.8
2017-Sep-15 18:26N 28°51' W 014°38'613.5
2017-Sep-15 17:57N 28°57' W 014°35'613.6
2017-Sep-15 17:30N 29°02' W 014°32'713.6
2017-Sep-15 17:00N 29°08' W 014°28'713.3
2017-Sep-15 16:30N 29°14' W 014°25'1113.5
2017-Sep-15 15:41N 29°24' W 014°19'213.3
2017-Sep-15 15:30N 29°26' W 014°18'713.3
2017-Sep-15 15:00N 29°32' W 014°14'713.3
2017-Sep-15 14:30N 29°38' W 014°11'713.4
2017-Sep-15 14:00N 29°44' W 014°08'713.5
2017-Sep-15 13:30N 29°50' W 014°04'713.5
2017-Sep-15 13:00N 29°56' W 014°01'813.5
2017-Sep-15 12:26N 30°03' W 013°57'613.4
2017-Sep-15 12:00N 30°08' W 013°54'713.2
2017-Sep-15 11:30N 30°14' W 013°51'713.3
2017-Sep-15 10:59N 30°20' W 013°47'613.3
2017-Sep-15 10:30N 30°26' W 013°43'713.4
2017-Sep-15 10:00N 30°32' W 013°40'813.5
2017-Sep-15 09:25N 30°39' W 013°36'513.3
2017-Sep-15 09:00N 30°44' W 013°33'713.3
2017-Sep-15 08:30N 30°50' W 013°30'713.3
2017-Sep-15 07:58N 30°56' W 013°26'713.2
2017-Sep-15 07:27N 31°02' W 013°22'613.2
2017-Sep-15 07:00N 31°08' W 013°19'813.2
2017-Sep-15 06:23N 31°15' W 013°15'513.2
2017-Sep-15 06:00N 31°20' W 013°13'613.2
2017-Sep-15 05:30N 31°26' W 013°10'713.2
2017-Sep-15 04:59N 31°32' W 013°06'713.2
2017-Sep-15 04:30N 31°38' W 013°03'1013.5
2017-Sep-15 03:44N 31°47' W 012°58'313.5
2017-Sep-15 03:30N 31°50' W 012°57'713.2
2017-Sep-15 03:00N 31°56' W 012°54'813.3
2017-Sep-15 02:24N 32°04' W 012°50'613.5
2017-Sep-15 01:59N 32°09' W 012°48'1013.8
2017-Sep-15 01:18N 32°18' W 012°43'413.7
2017-Sep-15 01:00N 32°21' W 012°41'713.8
2017-Sep-15 00:30N 32°28' W 012°38'1013.7
2017-Sep-14 23:46N 32°37' W 012°33'313.7
2017-Sep-14 23:30N 32°40' W 012°32'713.5
2017-Sep-14 22:58N 32°47' W 012°28'713.7
2017-Sep-14 22:28N 32°53' W 012°25'613.8
2017-Sep-14 22:00N 32°59' W 012°22'714.0
2017-Sep-14 21:30N 33°05' W 012°18'713.8
2017-Sep-14 21:00N 33°12' W 012°15'1913.7
2017-Sep-14 19:36N 33°29' W 012°06'113.6
2017-Sep-14 19:29N 33°31' W 012°05'713.7
2017-Sep-14 18:59N 33°37' W 012°02'713.8
2017-Sep-14 18:26N 33°44' W 011°59'613.9
2017-Sep-14 18:01N 33°49' W 011°56'3513.8
2017-Sep-14 15:29N 34°21' W 011°39'913.9
2017-Sep-14 14:51N 34°29' W 011°35'1814.0
2017-Sep-14 13:34N 34°46' W 011°26'414.0
2017-Sep-14 13:17N 34°50' W 011°24'714.1
2017-Sep-14 12:47N 34°56' W 011°21'18913.6
2017-Sep-13 22:53N 37°50' W 009°47'513.6
2017-Sep-13 22:29N 37°55' W 009°45'713.9
2017-Sep-13 22:01N 38°01' W 009°41'714.3
2017-Sep-13 21:30N 38°07' W 009°37'713.9
2017-Sep-13 21:00N 38°14' W 009°34'714.2
2017-Sep-13 20:30N 38°20' W 009°31'714.1
2017-Sep-13 20:00N 38°27' W 009°27'713.8
2017-Sep-13 19:31N 38°33' W 009°25'510.4
2017-Sep-13 19:00N 38°39' W 009°24'3 6.6
2017-Sep-13 18:30N 38°39' W 009°20'5 9.0
2017-Sep-13 18:00N 38°41' W 009°14'5 9.5
2017-Sep-13 17:30N 38°42' W 009°08'2 3.1
2017-Sep-13 16:58N 38°42' W 009°06'0 0.3
2017-Sep-13 16:28N 38°42' W 009°06'0 0.1
2017-Sep-13 15:58N 38°42' W 009°07'0 0.1
2017-Sep-13 15:25N 38°42' W 009°07'0 0.1
2017-Sep-13 14:55N 38°42' W 009°07'0 0.0
2017-Sep-13 14:28N 38°42' W 009°07'0 0.0
2017-Sep-13 13:58N 38°42' W 009°07'0 0.0
2017-Sep-13 13:25N 38°42' W 009°07'0 0.0
2017-Sep-13 12:58N 38°42' W 009°07'0 0.0
2017-Sep-13 12:28N 38°42' W 009°07'0 0.0
2017-Sep-13 11:58N 38°42' W 009°07'0 0.0
2017-Sep-13 11:28N 38°42' W 009°07'0 0.0
2017-Sep-13 10:58N 38°42' W 009°07'0 0.0
2017-Sep-13 10:28N 38°42' W 009°07'0 0.0
2017-Sep-13 09:58N 38°42' W 009°07'0 0.1
2017-Sep-13 09:28N 38°42' W 009°07'0 0.2
2017-Sep-13 08:58N 38°42' W 009°06'0 0.2
2017-Sep-13 08:28N 38°42' W 009°06'0 0.1
2017-Sep-13 07:58N 38°42' W 009°06'0 0.1
2017-Sep-13 07:28N 38°42' W 009°06'0 0.0
2017-Sep-13 06:58N 38°42' W 009°06'0 0.0
2017-Sep-13 06:28N 38°42' W 009°06'0 0.0
2017-Sep-13 05:58N 38°42' W 009°06'0 0.0
2017-Sep-13 05:28N 38°42' W 009°06'0 0.0
2017-Sep-13 04:58N 38°42' W 009°06'0 0.0
2017-Sep-13 04:28N 38°42' W 009°06'0 0.0
2017-Sep-13 03:58N 38°42' W 009°06'0 0.0
2017-Sep-13 03:28N 38°42' W 009°06'0 0.3
2017-Sep-13 02:58N 38°42' W 009°06'0 0.1
2017-Sep-13 02:25N 38°42' W 009°07'0 0.0
2017-Sep-13 01:58N 38°42' W 009°07'0 0.0
2017-Sep-13 01:28N 38°42' W 009°07'0 0.1
2017-Sep-13 00:58N 38°42' W 009°07'0 0.0
2017-Sep-13 00:28N 38°42' W 009°07'0 0.0
2017-Sep-12 23:58N 38°42' W 009°07'0 0.0
2017-Sep-12 23:28N 38°42' W 009°07'0 0.0
2017-Sep-12 22:58N 38°42' W 009°07'0 0.0
2017-Sep-12 22:25N 38°42' W 009°07'0 0.0
2017-Sep-12 21:58N 38°42' W 009°07'0 0.0
2017-Sep-12 21:28N 38°42' W 009°07'0 0.1
2017-Sep-12 20:58N 38°42' W 009°07'0 0.1
2017-Sep-12 20:28N 38°42' W 009°06'0 0.3
2017-Sep-12 19:58N 38°42' W 009°06'0 0.2
2017-Sep-12 19:28N 38°42' W 009°06'0 0.0
2017-Sep-12 18:58N 38°42' W 009°06'0 0.1
2017-Sep-12 18:28N 38°42' W 009°06'0 0.0
2017-Sep-12 17:58N 38°42' W 009°06'0 0.0
2017-Sep-12 17:28N 38°42' W 009°06'0 0.0
2017-Sep-12 16:58N 38°42' W 009°06'0 0.0
2017-Sep-12 16:28N 38°42' W 009°06'0 0.0
2017-Sep-12 15:58N 38°42' W 009°06'0 0.0
2017-Sep-12 15:28N 38°42' W 009°06'0 0.1
2017-Sep-12 14:58N 38°42' W 009°06'0 0.2
2017-Sep-12 14:28N 38°42' W 009°06'0 0.2
2017-Sep-12 13:58N 38°42' W 009°07'0 0.0
2017-Sep-12 13:28N 38°42' W 009°07'0 0.0
2017-Sep-12 12:58N 38°42' W 009°07'0 0.0
2017-Sep-12 12:28N 38°42' W 009°07'0 0.0
2017-Sep-12 11:58N 38°42' W 009°07'0 0.0
2017-Sep-12 11:28N 38°42' W 009°07'0 0.0
2017-Sep-12 10:58N 38°42' W 009°07'0 0.0
2017-Sep-12 10:28N 38°42' W 009°07'0 0.0
2017-Sep-12 09:58N 38°42' W 009°07'0 0.0
2017-Sep-12 09:25N 38°42' W 009°07'0 0.0
2017-Sep-12 08:58N 38°42' W 009°07'0 0.1
2017-Sep-12 08:28N 38°42' W 009°07'0 0.1
2017-Sep-12 07:58N 38°42' W 009°06'0 0.1
2017-Sep-12 07:28N 38°42' W 009°06'0 0.2
2017-Sep-12 06:58N 38°42' W 009°06'0 0.1
2017-Sep-12 06:28N 38°42' W 009°06'0 0.1
2017-Sep-12 05:58N 38°42' W 009°06'0 0.0
2017-Sep-12 05:28N 38°42' W 009°06'0 0.1
2017-Sep-12 04:55N 38°42' W 009°06'0 0.0
2017-Sep-12 04:28N 38°42' W 009°06'0 0.0
2017-Sep-12 03:55N 38°42' W 009°06'0 0.0
2017-Sep-12 03:28N 38°42' W 009°06'0 0.1
2017-Sep-12 02:58N 38°42' W 009°06'0 0.1
2017-Sep-12 02:28N 38°42' W 009°06'0 0.2
2017-Sep-12 01:58N 38°42' W 009°06'0 0.2
2017-Sep-12 01:28N 38°42' W 009°06'0 0.1
2017-Sep-12 00:58N 38°42' W 009°07'0 0.1
2017-Sep-12 00:28N 38°42' W 009°07'0 0.0
2017-Sep-11 23:58N 38°42' W 009°07'0 0.0
2017-Sep-11 23:28N 38°42' W 009°07'0 0.0
2017-Sep-11 22:58N 38°42' W 009°07'0 0.0
2017-Sep-11 22:25N 38°42' W 009°07'0 0.0
2017-Sep-11 21:58N 38°42' W 009°07'0 0.0
2017-Sep-11 21:25N 38°42' W 009°07'0 0.0
2017-Sep-11 20:58N 38°42' W 009°07'0 0.0
2017-Sep-11 20:28N 38°42' W 009°07'0 0.1
2017-Sep-11 19:58N 38°42' W 009°07'0 0.1
2017-Sep-11 19:28N 38°42' W 009°06'0 0.2
2017-Sep-11 18:58N 38°42' W 009°06'0 0.1
2017-Sep-11 18:28N 38°42' W 009°06'0 0.1
2017-Sep-11 17:58N 38°42' W 009°06'0 0.0
2017-Sep-11 17:25N 38°42' W 009°06'0 0.0
2017-Sep-11 16:58N 38°42' W 009°06'0 0.0
2017-Sep-11 16:25N 38°42' W 009°06'0 0.0
2017-Sep-11 15:58N 38°42' W 009°06'0 0.0
2017-Sep-11 15:28N 38°42' W 009°06'0 0.0
2017-Sep-11 14:58N 38°42' W 009°06'0 0.1
2017-Sep-11 14:22N 38°42' W 009°06'0 0.0
2017-Sep-11 13:58N 38°42' W 009°06'0 0.3
2017-Sep-11 13:25N 38°42' W 009°06'0 0.1
2017-Sep-11 12:58N 38°42' W 009°07'0 0.0
2017-Sep-11 12:28N 38°42' W 009°07'0 0.0
2017-Sep-11 11:58N 38°42' W 009°07'0 0.0
2017-Sep-11 11:28N 38°42' W 009°07'0 0.0
2017-Sep-11 10:58N 38°42' W 009°07'0 0.0
2017-Sep-11 10:28N 38°42' W 009°07'0 0.0
2017-Sep-11 09:58N 38°42' W 009°07'0 0.0
2017-Sep-11 09:28N 38°42' W 009°07'0 0.0
2017-Sep-11 08:58N 38°42' W 009°07'0 0.0
2017-Sep-11 08:28N 38°42' W 009°07'0 0.0
2017-Sep-11 07:58N 38°42' W 009°07'0 0.1
2017-Sep-11 07:22N 38°42' W 009°07'0 0.1
2017-Sep-11 06:58N 38°42' W 009°06'0 0.2
2017-Sep-11 06:28N 38°42' W 009°06'0 0.2
2017-Sep-11 05:58N 38°42' W 009°06'0 0.0
2017-Sep-11 05:28N 38°42' W 009°06'0 0.0
2017-Sep-11 04:52N 38°42' W 009°06'0 0.0
2017-Sep-11 04:28N 38°42' W 009°06'0 0.0
2017-Sep-11 03:58N 38°42' W 009°06'0 0.0
2017-Sep-11 03:28N 38°42' W 009°06'0 0.0
2017-Sep-11 02:58N 38°42' W 009°06'0 0.0
2017-Sep-11 02:28N 38°42' W 009°06'0 0.0
2017-Sep-11 01:58N 38°42' W 009°06'0 0.1
2017-Sep-11 01:28N 38°42' W 009°06'0 0.2
2017-Sep-11 00:58N 38°42' W 009°06'0 0.2
2017-Sep-11 00:28N 38°42' W 009°07'0 0.1
2017-Sep-10 23:58N 38°42' W 009°07'0 0.0
2017-Sep-10 23:28N 38°42' W 009°07'0 0.0
2017-Sep-10 22:58N 38°42' W 009°07'0 0.0
2017-Sep-10 22:28N 38°42' W 009°07'0 0.0
2017-Sep-10 21:58N 38°42' W 009°07'0 0.0
2017-Sep-10 21:28N 38°42' W 009°07'0 0.0
2017-Sep-10 20:58N 38°42' W 009°07'0 0.0
2017-Sep-10 20:28N 38°42' W 009°07'0 0.0
2017-Sep-10 19:58N 38°42' W 009°07'0 0.1
2017-Sep-10 19:28N 38°42' W 009°07'0 0.1
2017-Sep-10 18:55N 38°42' W 009°06'0 0.2
2017-Sep-10 18:25N 38°42' W 009°06'0 0.1
2017-Sep-10 17:55N 38°42' W 009°06'0 0.1
2017-Sep-10 17:28N 38°42' W 009°06'0 0.0
2017-Sep-10 16:58N 38°42' W 009°06'0 0.0
2017-Sep-10 16:28N 38°42' W 009°06'0 0.0
2017-Sep-10 15:58N 38°42' W 009°06'0 0.0
2017-Sep-10 15:28N 38°42' W 009°06'0 0.0
2017-Sep-10 14:58N 38°42' W 009°06'0 0.0
2017-Sep-10 13:58N 38°42' W 009°06'0 0.0
2017-Sep-10 13:28N 38°42' W 009°06'0 0.1
2017-Sep-10 12:58N 38°42' W 009°06'0 0.3
2017-Sep-10 12:25N 38°42' W 009°06'0 0.2
2017-Sep-10 11:58N 38°42' W 009°07'0 0.0
2017-Sep-10 11:28N 38°42' W 009°07'0 0.0
2017-Sep-10 10:58N 38°42' W 009°07'0 0.0
2017-Sep-10 10:28N 38°42' W 009°07'0 0.0
2017-Sep-10 09:55N 38°42' W 009°07'0 0.0
2017-Sep-10 09:22N 38°42' W 009°07'0 0.0
2017-Sep-10 08:58N 38°42' W 009°07'0 0.0
2017-Sep-10 08:28N 38°42' W 009°07'0 0.0
2017-Sep-10 07:58N 38°42' W 009°07'0 0.0
2017-Sep-10 07:28N 38°42' W 009°07'0 0.1
2017-Sep-10 06:58N 38°42' W 009°07'0 0.2
2017-Sep-10 06:25N 38°42' W 009°06'0 0.2
2017-Sep-10 05:58N 38°42' W 009°06'0 0.1
2017-Sep-10 05:22N 38°42' W 009°06'0 0.0
2017-Sep-10 04:52N 38°42' W 009°06'0 0.0
2017-Sep-10 04:25N 38°42' W 009°06'0 0.0
2017-Sep-10 03:58N 38°42' W 009°06'0 0.0
2017-Sep-10 03:22N 38°42' W 009°06'0 0.0
2017-Sep-10 02:58N 38°42' W 009°06'0 0.0
2017-Sep-10 02:28N 38°42' W 009°06'0 0.1
2017-Sep-10 01:58N 38°42' W 009°06'0 0.0
2017-Sep-10 01:22N 38°42' W 009°06'0 0.1
2017-Sep-10 00:55N 38°42' W 009°06'0 0.1
2017-Sep-10 00:28N 38°42' W 009°06'0 0.2
2017-Sep-09 23:58N 38°42' W 009°06'0 0.2
2017-Sep-09 23:28N 38°42' W 009°07'0 0.1
2017-Sep-09 22:58N 38°42' W 009°07'0 0.0
2017-Sep-09 22:28N 38°42' W 009°07'0 0.0
2017-Sep-09 21:58N 38°42' W 009°07'0 0.0
2017-Sep-09 21:28N 38°42' W 009°07'0 0.0
2017-Sep-09 20:58N 38°42' W 009°07'0 0.0
2017-Sep-09 20:28N 38°42' W 009°07'0 0.0
2017-Sep-09 19:58N 38°42' W 009°07'0 0.0
2017-Sep-09 19:28N 38°42' W 009°07'0 0.1
2017-Sep-09 18:58N 38°42' W 009°07'0 0.1
2017-Sep-09 18:28N 38°42' W 009°06'0 0.1
2017-Sep-09 17:58N 38°42' W 009°06'0 0.2
2017-Sep-09 17:22N 38°42' W 009°06'0 0.1
2017-Sep-09 16:55N 38°42' W 009°06'0 0.1
2017-Sep-09 16:28N 38°42' W 009°06'0 0.0
2017-Sep-09 15:55N 38°42' W 009°06'0 0.0
2017-Sep-09 15:25N 38°42' W 009°06'0 0.0
2017-Sep-09 14:58N 38°42' W 009°06'0 0.0
2017-Sep-09 14:28N 38°42' W 009°06'0 0.0
2017-Sep-09 13:58N 38°42' W 009°06'0 0.0
2017-Sep-09 13:28N 38°42' W 009°06'0 0.1
2017-Sep-09 12:58N 38°42' W 009°06'0 0.0
2017-Sep-09 12:28N 38°42' W 009°06'0 0.1
2017-Sep-09 11:55N 38°42' W 009°06'0 0.1
2017-Sep-09 11:28N 38°42' W 009°06'0 0.3
2017-Sep-09 10:58N 38°42' W 009°07'0 0.1
2017-Sep-09 10:28N 38°42' W 009°07'0 0.0
2017-Sep-09 09:58N 38°42' W 009°07'0 0.0
2017-Sep-09 09:28N 38°42' W 009°07'0 0.0
2017-Sep-09 08:58N 38°42' W 009°07'0 0.0
2017-Sep-09 08:28N 38°42' W 009°07'0 0.0
2017-Sep-09 07:58N 38°42' W 009°07'0 0.0
2017-Sep-09 07:28N 38°42' W 009°07'0 0.0
2017-Sep-09 06:58N 38°42' W 009°07'0 0.1
2017-Sep-09 06:28N 38°42' W 009°07'  

Dump ship's entire track history